sensor_id;sensor_type;location;lat;lon;timestamp;temperature;humidity
36498;DHT22;22513;51.222;6.480;2023-01-09T00:01:19;7.90;99.90
36498;DHT22;22513;51.222;6.480;2023-01-09T00:03:46;7.90;99.90
36498;DHT22;22513;51.222;6.480;2023-01-09T00:06:11;7.90;99.90
36498;DHT22;22513;51.222;6.480;2023-01-09T00:08:37;7.90;99.90
36498;DHT22;22513;51.222;6.480;2023-01-09T00:11:03;7.90;99.90
36498;DHT22;22513;51.222;6.480;2023-01-09T00:13:28;7.90;99.90
36498;DHT22;22513;51.222;6.480;2023-01-09T00:15:54;7.90;99.90
36498;DHT22;22513;51.222;6.480;2023-01-09T00:18:20;7.90;99.90
36498;DHT22;22513;51.222;6.480;2023-01-09T00:20:45;7.90;99.90
36498;DHT22;22513;51.222;6.480;2023-01-09T00:23:11;7.80;99.90
36498;DHT22;22513;51.222;6.480;2023-01-09T00:25:36;7.80;99.90
36498;DHT22;22513;51.222;6.480;2023-01-09T00:28:02;7.80;99.90
36498;DHT22;22513;51.222;6.480;2023-01-09T00:30:28;7.80;99.90
36498;DHT22;22513;51.222;6.480;2023-01-09T00:32:54;7.80;99.90
36498;DHT22;22513;51.222;6.480;2023-01-09T00:35:22;7.70;99.90
36498;DHT22;22513;51.222;6.480;2023-01-09T00:37:48;7.70;99.90
36498;DHT22;22513;51.222;6.480;2023-01-09T00:40:15;7.60;99.90
36498;DHT22;22513;51.222;6.480;2023-01-09T00:42:43;7.60;99.90
36498;DHT22;22513;51.222;6.480;2023-01-09T00:45:16;7.60;99.90
36498;DHT22;22513;51.222;6.480;2023-01-09T00:47:47;7.50;99.90
36498;DHT22;22513;51.222;6.480;2023-01-09T00:50:21;7.50;99.90
36498;DHT22;22513;51.222;6.480;2023-01-09T00:52:49;7.40;99.90
36498;DHT22;22513;51.222;6.480;2023-01-09T00:55:16;7.40;99.90
36498;DHT22;22513;51.222;6.480;2023-01-09T00:57:42;7.30;99.90
36498;DHT22;22513;51.222;6.480;2023-01-09T01:00:09;7.30;99.90
36498;DHT22;22513;51.222;6.480;2023-01-09T01:02:34;7.30;99.90
36498;DHT22;22513;51.222;6.480;2023-01-09T01:05:00;7.20;99.90
36498;DHT22;22513;51.222;6.480;2023-01-09T01:07:44;7.20;99.90
36498;DHT22;22513;51.222;6.480;2023-01-09T01:10:30;7.10;99.90
36498;DHT22;22513;51.222;6.480;2023-01-09T01:12:56;7.10;99.90
36498;DHT22;22513;51.222;6.480;2023-01-09T01:15:21;7.10;99.90
36498;DHT22;22513;51.222;6.480;2023-01-09T01:17:47;7.10;99.90
36498;DHT22;22513;51.222;6.480;2023-01-09T01:20:16;7.00;99.90
36498;DHT22;22513;51.222;6.480;2023-01-09T01:22:42;7.10;99.90
36498;DHT22;22513;51.222;6.480;2023-01-09T01:25:09;7.20;99.90
36498;DHT22;22513;51.222;6.480;2023-01-09T01:27:35;7.20;99.90
36498;DHT22;22513;51.222;6.480;2023-01-09T01:30:01;7.20;99.90
36498;DHT22;22513;51.222;6.480;2023-01-09T01:32:26;7.30;99.90
36498;DHT22;22513;51.222;6.480;2023-01-09T01:34:52;7.20;99.90
36498;DHT22;22513;51.222;6.480;2023-01-09T01:37:17;7.20;99.90
36498;DHT22;22513;51.222;6.480;2023-01-09T01:39:43;7.20;99.90
36498;DHT22;22513;51.222;6.480;2023-01-09T01:42:12;7.20;99.90
36498;DHT22;22513;51.222;6.480;2023-01-09T01:45:02;7.20;99.90
36498;DHT22;22513;51.222;6.480;2023-01-09T01:50:36;7.00;99.90
36498;DHT22;22513;51.222;6.480;2023-01-09T01:56:05;6.80;99.90
36498;DHT22;22513;51.222;6.480;2023-01-09T01:58:38;6.80;99.90
36498;DHT22;22513;51.222;6.480;2023-01-09T02:01:06;6.70;99.90
36498;DHT22;22513;51.222;6.480;2023-01-09T02:03:32;6.70;99.90
36498;DHT22;22513;51.222;6.480;2023-01-09T02:05:58;6.60;99.90
36498;DHT22;22513;51.222;6.480;2023-01-09T02:08:24;6.50;99.90
36498;DHT22;22513;51.222;6.480;2023-01-09T02:10:50;6.50;99.90
36498;DHT22;22513;51.222;6.480;2023-01-09T02:13:17;6.40;99.90
36498;DHT22;22513;51.222;6.480;2023-01-09T02:19:05;6.20;99.90
36498;DHT22;22513;51.222;6.480;2023-01-09T02:21:49;6.10;99.90
36498;DHT22;22513;51.222;6.480;2023-01-09T02:42:59;6.10;99.90
36498;DHT22;22513;51.222;6.480;2023-01-09T02:45:26;6.10;99.90
36498;DHT22;22513;51.222;6.480;2023-01-09T02:47:52;6.20;99.90
36498;DHT22;22513;51.222;6.480;2023-01-09T02:50:25;6.30;99.90
36498;DHT22;22513;51.222;6.480;2023-01-09T02:56:00;6.40;99.90
36498;DHT22;22513;51.222;6.480;2023-01-09T03:04:29;6.30;99.90
36498;DHT22;22513;51.222;6.480;2023-01-09T03:07:23;6.30;99.90
36498;DHT22;22513;51.222;6.480;2023-01-09T03:09:55;6.20;99.90
36498;DHT22;22513;51.222;6.480;2023-01-09T03:12:27;6.10;99.90
36498;DHT22;22513;51.222;6.480;2023-01-09T03:14:57;6.00;99.90
36498;DHT22;22513;51.222;6.480;2023-01-09T03:17:31;5.90;99.90
36498;DHT22;22513;51.222;6.480;2023-01-09T03:20:00;5.90;99.90
36498;DHT22;22513;51.222;6.480;2023-01-09T03:22:27;5.80;99.90
36498;DHT22;22513;51.222;6.480;2023-01-09T03:24:52;5.80;99.90
36498;DHT22;22513;51.222;6.480;2023-01-09T03:27:18;5.70;99.90
36498;DHT22;22513;51.222;6.480;2023-01-09T03:29:44;5.70;99.90
36498;DHT22;22513;51.222;6.480;2023-01-09T03:32:09;5.60;99.90
36498;DHT22;22513;51.222;6.480;2023-01-09T03:34:35;5.50;99.90
36498;DHT22;22513;51.222;6.480;2023-01-09T03:37:01;5.50;99.90
36498;DHT22;22513;51.222;6.480;2023-01-09T03:39:28;5.40;99.90
36498;DHT22;22513;51.222;6.480;2023-01-09T03:41:54;5.40;99.90
36498;DHT22;22513;51.222;6.480;2023-01-09T03:44:19;5.40;99.90
36498;DHT22;22513;51.222;6.480;2023-01-09T03:46:45;5.30;99.90
36498;DHT22;22513;51.222;6.480;2023-01-09T03:49:11;5.30;99.90
36498;DHT22;22513;51.222;6.480;2023-01-09T03:51:38;5.30;99.90
36498;DHT22;22513;51.222;6.480;2023-01-09T03:54:03;5.30;99.90
36498;DHT22;22513;51.222;6.480;2023-01-09T03:56:29;5.20;99.90
36498;DHT22;22513;51.222;6.480;2023-01-09T03:58:54;5.10;99.90
36498;DHT22;22513;51.222;6.480;2023-01-09T04:01:20;5.00;99.90
36498;DHT22;22513;51.222;6.480;2023-01-09T04:03:45;5.00;99.90
36498;DHT22;22513;51.222;6.480;2023-01-09T04:06:11;5.00;99.90
36498;DHT22;22513;51.222;6.480;2023-01-09T04:08:37;4.90;99.90
36498;DHT22;22513;51.222;6.480;2023-01-09T04:11:02;5.00;99.90
36498;DHT22;22513;51.222;6.480;2023-01-09T04:13:28;5.00;99.90
36498;DHT22;22513;51.222;6.480;2023-01-09T04:15:53;4.90;99.90
36498;DHT22;22513;51.222;6.480;2023-01-09T04:18:19;4.90;99.90
36498;DHT22;22513;51.222;6.480;2023-01-09T04:20:48;4.80;99.90
36498;DHT22;22513;51.222;6.480;2023-01-09T04:23:14;4.90;99.90
36498;DHT22;22513;51.222;6.480;2023-01-09T04:25:40;4.90;99.90
36498;DHT22;22513;51.222;6.480;2023-01-09T04:28:05;4.90;99.90
36498;DHT22;22513;51.222;6.480;2023-01-09T04:30:31;4.80;99.90
36498;DHT22;22513;51.222;6.480;2023-01-09T04:32:56;4.80;99.90
36498;DHT22;22513;51.222;6.480;2023-01-09T04:35:22;4.80;99.90
36498;DHT22;22513;51.222;6.480;2023-01-09T04:37:47;4.90;99.90
36498;DHT22;22513;51.222;6.480;2023-01-09T04:40:13;4.90;99.90
36498;DHT22;22513;51.222;6.480;2023-01-09T04:42:40;5.00;99.90
36498;DHT22;22513;51.222;6.480;2023-01-09T04:45:07;5.10;99.90
36498;DHT22;22513;51.222;6.480;2023-01-09T04:47:36;5.20;99.90
36498;DHT22;22513;51.222;6.480;2023-01-09T04:50:03;5.30;99.90
36498;DHT22;22513;51.222;6.480;2023-01-09T04:52:29;5.40;99.90
36498;DHT22;22513;51.222;6.480;2023-01-09T04:54:54;5.60;99.90
36498;DHT22;22513;51.222;6.480;2023-01-09T04:57:20;5.70;99.90
36498;DHT22;22513;51.222;6.480;2023-01-09T04:59:45;5.80;99.90
36498;DHT22;22513;51.222;6.480;2023-01-09T05:02:11;5.90;99.90
36498;DHT22;22513;51.222;6.480;2023-01-09T05:04:37;6.00;99.90
36498;DHT22;22513;51.222;6.480;2023-01-09T05:07:02;6.00;99.90
36498;DHT22;22513;51.222;6.480;2023-01-09T05:09:28;6.10;99.90
36498;DHT22;22513;51.222;6.480;2023-01-09T05:11:54;6.10;99.90
36498;DHT22;22513;51.222;6.480;2023-01-09T05:14:19;6.20;99.90
36498;DHT22;22513;51.222;6.480;2023-01-09T05:16:45;6.30;99.90
36498;DHT22;22513;51.222;6.480;2023-01-09T05:19:11;6.30;99.90
36498;DHT22;22513;51.222;6.480;2023-01-09T05:21:37;6.30;99.90
36498;DHT22;22513;51.222;6.480;2023-01-09T05:24:02;6.40;99.90
36498;DHT22;22513;51.222;6.480;2023-01-09T05:26:28;6.50;99.90
36498;DHT22;22513;51.222;6.480;2023-01-09T05:28:54;6.50;99.90
36498;DHT22;22513;51.222;6.480;2023-01-09T05:31:25;6.50;99.90
36498;DHT22;22513;51.222;6.480;2023-01-09T05:33:51;6.60;99.90
36498;DHT22;22513;51.222;6.480;2023-01-09T05:36:18;6.60;99.90
36498;DHT22;22513;51.222;6.480;2023-01-09T05:38:44;6.60;99.90
36498;DHT22;22513;51.222;6.480;2023-01-09T05:41:09;6.70;99.90
36498;DHT22;22513;51.222;6.480;2023-01-09T05:43:35;6.70;99.90
36498;DHT22;22513;51.222;6.480;2023-01-09T05:46:01;6.70;99.90
36498;DHT22;22513;51.222;6.480;2023-01-09T05:48:26;6.80;99.90
36498;DHT22;22513;51.222;6.480;2023-01-09T05:50:52;6.80;99.90
36498;DHT22;22513;51.222;6.480;2023-01-09T05:53:18;6.80;99.90
36498;DHT22;22513;51.222;6.480;2023-01-09T05:55:43;6.90;99.90
36498;DHT22;22513;51.222;6.480;2023-01-09T05:58:09;6.90;99.90
36498;DHT22;22513;51.222;6.480;2023-01-09T06:03:02;6.90;99.90
36498;DHT22;22513;51.222;6.480;2023-01-09T06:05:28;7.00;99.90
36498;DHT22;22513;51.222;6.480;2023-01-09T06:07:53;7.00;99.90
36498;DHT22;22513;51.222;6.480;2023-01-09T06:10:19;7.10;99.90
36498;DHT22;22513;51.222;6.480;2023-01-09T06:12:49;7.10;99.90
36498;DHT22;22513;51.222;6.480;2023-01-09T06:15:16;7.10;99.90
36498;DHT22;22513;51.222;6.480;2023-01-09T06:17:42;7.10;99.90
36498;DHT22;22513;51.222;6.480;2023-01-09T06:20:08;7.10;99.90
36498;DHT22;22513;51.222;6.480;2023-01-09T06:22:34;7.10;99.90
36498;DHT22;22513;51.222;6.480;2023-01-09T06:25:00;7.20;99.90
36498;DHT22;22513;51.222;6.480;2023-01-09T06:27:26;7.20;99.90
36498;DHT22;22513;51.222;6.480;2023-01-09T06:29:51;7.20;99.90
36498;DHT22;22513;51.222;6.480;2023-01-09T06:32:17;7.20;99.90
36498;DHT22;22513;51.222;6.480;2023-01-09T06:34:43;7.20;99.90
36498;DHT22;22513;51.222;6.480;2023-01-09T06:37:08;7.20;99.90
36498;DHT22;22513;51.222;6.480;2023-01-09T06:39:34;7.20;99.90
36498;DHT22;22513;51.222;6.480;2023-01-09T06:42:00;7.30;99.90
36498;DHT22;22513;51.222;6.480;2023-01-09T06:44:25;7.30;99.90
36498;DHT22;22513;51.222;6.480;2023-01-09T06:46:51;7.40;99.90
36498;DHT22;22513;51.222;6.480;2023-01-09T06:49:17;7.30;99.90
36498;DHT22;22513;51.222;6.480;2023-01-09T06:51:48;7.40;99.90
36498;DHT22;22513;51.222;6.480;2023-01-09T06:54:14;7.40;99.90
36498;DHT22;22513;51.222;6.480;2023-01-09T06:56:39;7.40;99.90
36498;DHT22;22513;51.222;6.480;2023-01-09T06:59:05;7.50;99.90
36498;DHT22;22513;51.222;6.480;2023-01-09T07:01:31;7.50;99.90
36498;DHT22;22513;51.222;6.480;2023-01-09T07:03:56;7.50;99.90
36498;DHT22;22513;51.222;6.480;2023-01-09T07:06:22;7.50;99.90
36498;DHT22;22513;51.222;6.480;2023-01-09T07:08:47;7.60;99.90
36498;DHT22;22513;51.222;6.480;2023-01-09T07:11:13;7.60;99.90
36498;DHT22;22513;51.222;6.480;2023-01-09T07:13:38;7.60;99.90
36498;DHT22;22513;51.222;6.480;2023-01-09T07:16:04;7.60;99.90
36498;DHT22;22513;51.222;6.480;2023-01-09T07:18:30;7.60;99.90
36498;DHT22;22513;51.222;6.480;2023-01-09T07:20:56;7.60;99.90
36498;DHT22;22513;51.222;6.480;2023-01-09T07:23:23;7.70;99.90
36498;DHT22;22513;51.222;6.480;2023-01-09T07:25:49;7.70;99.90
36498;DHT22;22513;51.222;6.480;2023-01-09T07:28:15;7.70;99.90
36498;DHT22;22513;51.222;6.480;2023-01-09T07:30:41;7.70;99.90
36498;DHT22;22513;51.222;6.480;2023-01-09T07:33:07;7.70;99.90
36498;DHT22;22513;51.222;6.480;2023-01-09T07:35:33;7.70;99.90
36498;DHT22;22513;51.222;6.480;2023-01-09T07:37:58;7.70;99.90
36498;DHT22;22513;51.222;6.480;2023-01-09T07:40:24;7.80;99.90
36498;DHT22;22513;51.222;6.480;2023-01-09T07:42:52;7.80;99.90
36498;DHT22;22513;51.222;6.480;2023-01-09T07:45:17;7.80;99.90
36498;DHT22;22513;51.222;6.480;2023-01-09T07:47:43;7.80;99.90
36498;DHT22;22513;51.222;6.480;2023-01-09T07:50:09;7.80;99.90
36498;DHT22;22513;51.222;6.480;2023-01-09T07:52:35;7.90;99.90
36498;DHT22;22513;51.222;6.480;2023-01-09T07:55:00;7.90;99.90
36498;DHT22;22513;51.222;6.480;2023-01-09T07:57:26;7.90;99.90
36498;DHT22;22513;51.222;6.480;2023-01-09T07:59:54;7.90;99.90
36498;DHT22;22513;51.222;6.480;2023-01-09T08:02:19;7.90;99.90
36498;DHT22;22513;51.222;6.480;2023-01-09T08:04:45;8.00;99.90
36498;DHT22;22513;51.222;6.480;2023-01-09T08:07:12;8.00;99.90
36498;DHT22;22513;51.222;6.480;2023-01-09T08:09:38;8.00;99.90
36498;DHT22;22513;51.222;6.480;2023-01-09T08:12:03;8.10;99.90
36498;DHT22;22513;51.222;6.480;2023-01-09T08:14:29;8.10;99.90
36498;DHT22;22513;51.222;6.480;2023-01-09T08:16:55;8.10;99.90
36498;DHT22;22513;51.222;6.480;2023-01-09T08:19:20;8.10;99.90
36498;DHT22;22513;51.222;6.480;2023-01-09T08:21:46;8.10;99.90
36498;DHT22;22513;51.222;6.480;2023-01-09T08:24:12;8.20;99.90
36498;DHT22;22513;51.222;6.480;2023-01-09T08:26:37;8.20;99.90
36498;DHT22;22513;51.222;6.480;2023-01-09T08:29:03;8.30;99.90
36498;DHT22;22513;51.222;6.480;2023-01-09T08:31:28;8.30;99.90
36498;DHT22;22513;51.222;6.480;2023-01-09T08:33:54;8.30;99.90
36498;DHT22;22513;51.222;6.480;2023-01-09T08:36:20;8.40;99.90
36498;DHT22;22513;51.222;6.480;2023-01-09T08:38:45;8.40;99.90
36498;DHT22;22513;51.222;6.480;2023-01-09T08:41:11;8.50;99.90
36498;DHT22;22513;51.222;6.480;2023-01-09T08:43:55;8.50;99.90
36498;DHT22;22513;51.222;6.480;2023-01-09T08:46:39;8.40;99.90
36498;DHT22;22513;51.222;6.480;2023-01-09T08:49:24;8.50;99.90
36498;DHT22;22513;51.222;6.480;2023-01-09T08:51:49;8.50;99.90
36498;DHT22;22513;51.222;6.480;2023-01-09T08:54:15;8.50;99.90
36498;DHT22;22513;51.222;6.480;2023-01-09T08:56:40;8.50;99.90
36498;DHT22;22513;51.222;6.480;2023-01-09T08:59:06;8.50;99.90
36498;DHT22;22513;51.222;6.480;2023-01-09T09:01:32;8.50;99.90
36498;DHT22;22513;51.222;6.480;2023-01-09T09:03:57;8.50;99.90
36498;DHT22;22513;51.222;6.480;2023-01-09T09:06:23;8.60;99.90
36498;DHT22;22513;51.222;6.480;2023-01-09T09:08:49;8.60;99.90
36498;DHT22;22513;51.222;6.480;2023-01-09T09:11:14;8.60;99.90
36498;DHT22;22513;51.222;6.480;2023-01-09T09:13:40;8.60;99.90
36498;DHT22;22513;51.222;6.480;2023-01-09T09:16:05;8.70;99.90
36498;DHT22;22513;51.222;6.480;2023-01-09T09:18:31;8.80;99.90
36498;DHT22;22513;51.222;6.480;2023-01-09T09:20:56;8.90;99.90
36498;DHT22;22513;51.222;6.480;2023-01-09T09:23:22;9.00;99.90
36498;DHT22;22513;51.222;6.480;2023-01-09T09:25:48;9.20;99.90
36498;DHT22;22513;51.222;6.480;2023-01-09T09:28:13;9.30;99.90
36498;DHT22;22513;51.222;6.480;2023-01-09T09:30:39;9.40;99.90
36498;DHT22;22513;51.222;6.480;2023-01-09T09:33:05;9.60;99.90
36498;DHT22;22513;51.222;6.480;2023-01-09T09:35:31;9.70;99.90
36498;DHT22;22513;51.222;6.480;2023-01-09T09:38:00;9.70;99.90
36498;DHT22;22513;51.222;6.480;2023-01-09T09:43:31;9.60;99.90
36498;DHT22;22513;51.222;6.480;2023-01-09T09:49:21;9.50;99.90
36498;DHT22;22513;51.222;6.480;2023-01-09T09:51:49;9.40;99.90
36498;DHT22;22513;51.222;6.480;2023-01-09T09:54:22;9.40;99.90
36498;DHT22;22513;51.222;6.480;2023-01-09T09:56:53;9.30;99.90
36498;DHT22;22513;51.222;6.480;2023-01-09T09:59:26;9.20;99.90
36498;DHT22;22513;51.222;6.480;2023-01-09T10:02:25;9.20;99.90
36498;DHT22;22513;51.222;6.480;2023-01-09T10:04:55;9.20;99.90
36498;DHT22;22513;51.222;6.480;2023-01-09T10:07:29;9.20;99.90
36498;DHT22;22513;51.222;6.480;2023-01-09T10:10:00;9.30;99.90
36498;DHT22;22513;51.222;6.480;2023-01-09T10:38:32;9.20;99.90
36498;DHT22;22513;51.222;6.480;2023-01-09T10:41:03;9.30;99.90
36498;DHT22;22513;51.222;6.480;2023-01-09T10:43:33;9.40;99.90
36498;DHT22;22513;51.222;6.480;2023-01-09T10:46:31;9.50;99.90
36498;DHT22;22513;51.222;6.480;2023-01-09T10:49:00;9.60;99.90
36498;DHT22;22513;51.222;6.480;2023-01-09T10:54:14;9.70;99.90
36498;DHT22;22513;51.222;6.480;2023-01-09T10:56:45;9.80;99.90
36498;DHT22;22513;51.222;6.480;2023-01-09T10:59:15;9.90;99.90
36498;DHT22;22513;51.222;6.480;2023-01-09T11:01:43;9.90;99.90
36498;DHT22;22513;51.222;6.480;2023-01-09T11:04:24;9.90;99.90
36498;DHT22;22513;51.222;6.480;2023-01-09T11:07:01;10.00;99.90
36498;DHT22;22513;51.222;6.480;2023-01-09T11:09:27;10.10;99.90
36498;DHT22;22513;51.222;6.480;2023-01-09T11:11:52;10.20;99.90
36498;DHT22;22513;51.222;6.480;2023-01-09T11:14:26;10.30;99.90
36498;DHT22;22513;51.222;6.480;2023-01-09T11:17:00;10.20;99.90
36498;DHT22;22513;51.222;6.480;2023-01-09T11:19:28;10.20;99.90
36498;DHT22;22513;51.222;6.480;2023-01-09T11:22:14;10.20;99.90
36498;DHT22;22513;51.222;6.480;2023-01-09T11:24:40;10.20;99.90
36498;DHT22;22513;51.222;6.480;2023-01-09T11:29:38;10.10;99.90
36498;DHT22;22513;51.222;6.480;2023-01-09T11:32:04;10.00;99.90
36498;DHT22;22513;51.222;6.480;2023-01-09T11:34:32;9.90;99.90
36498;DHT22;22513;51.222;6.480;2023-01-09T11:37:10;9.70;99.90
36498;DHT22;22513;51.222;6.480;2023-01-09T11:39:39;9.70;99.90
36498;DHT22;22513;51.222;6.480;2023-01-09T11:42:20;9.60;99.90
36498;DHT22;22513;51.222;6.480;2023-01-09T11:45:33;9.50;99.90
36498;DHT22;22513;51.222;6.480;2023-01-09T11:48:01;9.40;99.90
36498;DHT22;22513;51.222;6.480;2023-01-09T11:50:56;9.40;99.90
36498;DHT22;22513;51.222;6.480;2023-01-09T11:53:22;9.40;99.90
36498;DHT22;22513;51.222;6.480;2023-01-09T11:56:00;9.40;99.90
36498;DHT22;22513;51.222;6.480;2023-01-09T11:58:33;9.50;99.90
36498;DHT22;22513;51.222;6.480;2023-01-09T12:09:07;9.50;99.90
36498;DHT22;22513;51.222;6.480;2023-01-09T12:11:58;9.50;99.90
36498;DHT22;22513;51.222;6.480;2023-01-09T12:20:20;9.30;99.90
36498;DHT22;22513;51.222;6.480;2023-01-09T12:26:02;9.30;99.90
36498;DHT22;22513;51.222;6.480;2023-01-09T12:31:36;9.50;99.90
36498;DHT22;22513;51.222;6.480;2023-01-09T12:39:59;9.50;99.90
36498;DHT22;22513;51.222;6.480;2023-01-09T12:45:30;9.30;99.90
36498;DHT22;22513;51.222;6.480;2023-01-09T12:53:48;9.30;99.90
36498;DHT22;22513;51.222;6.480;2023-01-09T12:56:15;9.40;99.90
36498;DHT22;22513;51.222;6.480;2023-01-09T13:06:11;9.60;99.90
36498;DHT22;22513;51.222;6.480;2023-01-09T13:08:41;9.50;99.90
36498;DHT22;22513;51.222;6.480;2023-01-09T13:11:28;9.50;99.90
36498;DHT22;22513;51.222;6.480;2023-01-09T13:14:28;9.40;99.90
36498;DHT22;22513;51.222;6.480;2023-01-09T13:16:56;9.40;99.90
36498;DHT22;22513;51.222;6.480;2023-01-09T13:19:33;9.30;99.90
36498;DHT22;22513;51.222;6.480;2023-01-09T13:22:02;9.30;99.90
36498;DHT22;22513;51.222;6.480;2023-01-09T13:24:55;9.30;99.90
36498;DHT22;22513;51.222;6.480;2023-01-09T13:27:24;9.30;99.90
36498;DHT22;22513;51.222;6.480;2023-01-09T13:30:02;9.30;99.90
36498;DHT22;22513;51.222;6.480;2023-01-09T13:32:39;9.20;99.90
36498;DHT22;22513;51.222;6.480;2023-01-09T13:35:15;9.20;99.90
36498;DHT22;22513;51.222;6.480;2023-01-09T13:37:41;9.30;99.90
36498;DHT22;22513;51.222;6.480;2023-01-09T13:40:30;9.30;99.90
36498;DHT22;22513;51.222;6.480;2023-01-09T13:43:04;9.30;99.90
36498;DHT22;22513;51.222;6.480;2023-01-09T13:45:33;9.30;99.90
36498;DHT22;22513;51.222;6.480;2023-01-09T13:50:43;9.30;99.90
36498;DHT22;22513;51.222;6.480;2023-01-09T14:06:39;9.20;99.90
36498;DHT22;22513;51.222;6.480;2023-01-09T14:09:19;9.20;99.90
36498;DHT22;22513;51.222;6.480;2023-01-09T14:11:46;9.20;99.90
36498;DHT22;22513;51.222;6.480;2023-01-09T14:14:25;9.30;99.90
36498;DHT22;22513;51.222;6.480;2023-01-09T14:16:53;9.30;99.90
36498;DHT22;22513;51.222;6.480;2023-01-09T14:19:35;9.30;99.90
36498;DHT22;22513;51.222;6.480;2023-01-09T14:22:02;9.30;99.90
36498;DHT22;22513;51.222;6.480;2023-01-09T14:24:42;9.30;99.90
36498;DHT22;22513;51.222;6.480;2023-01-09T14:27:48;9.20;99.90
36498;DHT22;22513;51.222;6.480;2023-01-09T14:36:02;9.10;99.90
36498;DHT22;22513;51.222;6.480;2023-01-09T14:43:56;9.00;99.90
36498;DHT22;22513;51.222;6.480;2023-01-09T14:46:24;8.90;99.90
36498;DHT22;22513;51.222;6.480;2023-01-09T14:51:23;8.90;99.90
36498;DHT22;22513;51.222;6.480;2023-01-09T14:53:50;8.90;99.90
36498;DHT22;22513;51.222;6.480;2023-01-09T14:56:28;8.90;99.90
36498;DHT22;22513;51.222;6.480;2023-01-09T14:59:11;8.80;99.90
36498;DHT22;22513;51.222;6.480;2023-01-09T15:01:37;8.80;99.90
36498;DHT22;22513;51.222;6.480;2023-01-09T15:04:30;8.80;99.90
36498;DHT22;22513;51.222;6.480;2023-01-09T15:07:00;8.70;99.90
36498;DHT22;22513;51.222;6.480;2023-01-09T15:09:43;8.70;99.90
36498;DHT22;22513;51.222;6.480;2023-01-09T15:12:16;8.70;99.90
36498;DHT22;22513;51.222;6.480;2023-01-09T15:14:44;8.60;99.90
36498;DHT22;22513;51.222;6.480;2023-01-09T15:17:21;8.60;99.90
36498;DHT22;22513;51.222;6.480;2023-01-09T15:19:48;8.60;99.90
36498;DHT22;22513;51.222;6.480;2023-01-09T15:24:50;8.50;99.90
36498;DHT22;22513;51.222;6.480;2023-01-09T15:27:15;8.40;99.90
36498;DHT22;22513;51.222;6.480;2023-01-09T15:29:43;8.50;99.90
36498;DHT22;22513;51.222;6.480;2023-01-09T15:32:27;8.40;99.90
36498;DHT22;22513;51.222;6.480;2023-01-09T15:34:54;8.40;99.90
36498;DHT22;22513;51.222;6.480;2023-01-09T15:37:27;8.30;99.90
36498;DHT22;22513;51.222;6.480;2023-01-09T15:39:54;8.30;99.90
36498;DHT22;22513;51.222;6.480;2023-01-09T15:42:26;8.30;99.90
36498;DHT22;22513;51.222;6.480;2023-01-09T15:47:49;8.20;99.90
36498;DHT22;22513;51.222;6.480;2023-01-09T15:50:16;8.20;99.90
36498;DHT22;22513;51.222;6.480;2023-01-09T15:52:43;8.20;99.90
36498;DHT22;22513;51.222;6.480;2023-01-09T15:55:32;8.20;99.90
36498;DHT22;22513;51.222;6.480;2023-01-09T15:58:02;8.10;99.90
36498;DHT22;22513;51.222;6.480;2023-01-09T16:00:35;8.20;99.90
36498;DHT22;22513;51.222;6.480;2023-01-09T16:03:13;8.10;99.90
36498;DHT22;22513;51.222;6.480;2023-01-09T16:05:43;8.10;99.90
36498;DHT22;22513;51.222;6.480;2023-01-09T16:08:30;8.10;99.90
36498;DHT22;22513;51.222;6.480;2023-01-09T16:11:02;8.10;99.90
36498;DHT22;22513;51.222;6.480;2023-01-09T16:13:30;8.00;99.90
36498;DHT22;22513;51.222;6.480;2023-01-09T16:15:58;8.00;99.90
36498;DHT22;22513;51.222;6.480;2023-01-09T16:18:30;7.90;99.90
36498;DHT22;22513;51.222;6.480;2023-01-09T16:21:03;7.90;99.90
36498;DHT22;22513;51.222;6.480;2023-01-09T16:23:34;7.90;99.90
36498;DHT22;22513;51.222;6.480;2023-01-09T16:26:05;7.90;99.90
36498;DHT22;22513;51.222;6.480;2023-01-09T16:28:32;7.90;99.90
36498;DHT22;22513;51.222;6.480;2023-01-09T16:31:01;7.90;99.90
36498;DHT22;22513;51.222;6.480;2023-01-09T16:33:29;7.90;99.90
36498;DHT22;22513;51.222;6.480;2023-01-09T16:35:56;7.90;99.90
36498;DHT22;22513;51.222;6.480;2023-01-09T16:38:25;7.90;99.90
36498;DHT22;22513;51.222;6.480;2023-01-09T16:41:14;7.90;99.90
36498;DHT22;22513;51.222;6.480;2023-01-09T16:43:58;7.80;99.90
36498;DHT22;22513;51.222;6.480;2023-01-09T16:46:24;7.80;99.90
36498;DHT22;22513;51.222;6.480;2023-01-09T16:48:50;7.80;99.90
36498;DHT22;22513;51.222;6.480;2023-01-09T16:51:19;7.80;99.90
36498;DHT22;22513;51.222;6.480;2023-01-09T16:53:46;7.70;99.90
36498;DHT22;22513;51.222;6.480;2023-01-09T16:56:20;7.70;99.90
36498;DHT22;22513;51.222;6.480;2023-01-09T16:58:47;7.70;99.90
36498;DHT22;22513;51.222;6.480;2023-01-09T17:01:13;7.70;99.90
36498;DHT22;22513;51.222;6.480;2023-01-09T17:03:41;7.70;99.90
36498;DHT22;22513;51.222;6.480;2023-01-09T17:06:13;7.70;99.90
36498;DHT22;22513;51.222;6.480;2023-01-09T17:08:40;7.70;99.90
36498;DHT22;22513;51.222;6.480;2023-01-09T17:11:07;7.60;99.90
36498;DHT22;22513;51.222;6.480;2023-01-09T17:13:35;7.60;99.90
36498;DHT22;22513;51.222;6.480;2023-01-09T17:16:01;7.60;99.90
36498;DHT22;22513;51.222;6.480;2023-01-09T17:18:28;7.60;99.90
36498;DHT22;22513;51.222;6.480;2023-01-09T17:20:56;7.60;99.90
36498;DHT22;22513;51.222;6.480;2023-01-09T17:23:22;7.60;99.90
36498;DHT22;22513;51.222;6.480;2023-01-09T17:25:56;7.60;99.90
36498;DHT22;22513;51.222;6.480;2023-01-09T17:28:49;7.60;99.90
36498;DHT22;22513;51.222;6.480;2023-01-09T17:31:15;7.60;99.90
36498;DHT22;22513;51.222;6.480;2023-01-09T17:33:41;7.60;99.90
36498;DHT22;22513;51.222;6.480;2023-01-09T17:36:33;7.60;99.90
36498;DHT22;22513;51.222;6.480;2023-01-09T17:39:00;7.60;99.90
36498;DHT22;22513;51.222;6.480;2023-01-09T17:41:27;7.60;99.90
36498;DHT22;22513;51.222;6.480;2023-01-09T17:43:54;7.50;99.90
36498;DHT22;22513;51.222;6.480;2023-01-09T17:46:35;7.60;99.90
36498;DHT22;22513;51.222;6.480;2023-01-09T17:49:02;7.60;99.90
36498;DHT22;22513;51.222;6.480;2023-01-09T17:51:28;7.60;99.90
36498;DHT22;22513;51.222;6.480;2023-01-09T17:53:54;7.50;99.90
36498;DHT22;22513;51.222;6.480;2023-01-09T17:56:32;7.50;99.90
36498;DHT22;22513;51.222;6.480;2023-01-09T17:58:58;7.40;99.90
36498;DHT22;22513;51.222;6.480;2023-01-09T18:01:24;7.30;99.90
36498;DHT22;22513;51.222;6.480;2023-01-09T18:03:50;7.20;99.90
36498;DHT22;22513;51.222;6.480;2023-01-09T18:06:18;7.10;99.90
36498;DHT22;22513;51.222;6.480;2023-01-09T18:08:44;7.10;99.90
36498;DHT22;22513;51.222;6.480;2023-01-09T18:11:21;7.00;99.90
36498;DHT22;22513;51.222;6.480;2023-01-09T18:13:49;6.90;99.90
36498;DHT22;22513;51.222;6.480;2023-01-09T18:16:17;6.70;99.90
36498;DHT22;22513;51.222;6.480;2023-01-09T18:18:43;6.60;99.90
36498;DHT22;22513;51.222;6.480;2023-01-09T18:21:16;6.60;99.90
36498;DHT22;22513;51.222;6.480;2023-01-09T18:23:42;6.50;99.90
36498;DHT22;22513;51.222;6.480;2023-01-09T18:26:09;6.40;99.90
36498;DHT22;22513;51.222;6.480;2023-01-09T18:28:36;6.30;99.90
36498;DHT22;22513;51.222;6.480;2023-01-09T18:31:02;6.30;99.90
36498;DHT22;22513;51.222;6.480;2023-01-09T18:33:27;6.30;99.90